Etusivu
METAR-TAF:

METAR-TAF

Lentoasemat :

Funafuti, Tuvalu

Funafutin kansainvälinen lentoasema

Leveyspiiri: 08-31S, Pituuspiiri: 179-13E, korkeus merenpinnasta: 1 m

Tämänhetkinen sää

Tämä raportti tehtiin 22 minuuttia sitten, kello 11.00 UTC
Tuuli 7 kn pohjoisesta/koillisesta
Lämpötila 29°C
Kosteus 74%
Ilmanpaine 1008 hPa
Näkyvyys 10 km tai enemmän
Muutamia pilviä 2000 ft:n korkeudessa

METAR: NGFU 231100Z 03007KT 9999 FEW020 29/24 Q1008

Aika: 23:22 (11:22 UTC)

Sääennuste

Tämä raportti tehtiin 5 tuntia ja 54 minuuttia sitten, kello 05.28 UTC
Ennuste voimassa 23. päivästä klo 06 UTC - 24. päivään klo 06 UTC
Tuuli 8 kn pohjoisesta/koillisesta
Näkyvyys 10 km tai enemmän
Hajanaisia pilviä 1900 ft:n korkeudessa

TAF: NGFU 230528Z 2306/2406 03008KT 9999 SCT019

Säähavainnot ja -ennusteet yli 4000 lentoasemalta (METAR- ja TAF-raportit).

Käytössä olevat sääasemat on merkitty karttaan keltaisilla ja punaisilla pisteillä.

Aseta hiiri pisteen päälle nähdäksesi sääaseman nimen.

Klikkaa sitten nähdäksesi säähavainnot ja -ennusteet.

Kartan vaihtaminen: klikkaa mustalla rastilla varustettuja vihreitä pisteitä, niin voit zoomata sisään; viivalla varustettua vihreää pistettä, niin voit zoomata ulos tai vihreitä nuolia, niin pääset viereisille kartoille.


METAR-TAF: